»·PEaware :: N736PM KJAC-KBIL

N736PM :: KJAC-KBIL

FLIGHT INFORMATION

Flight Status: Arrived
Operator: Privately registered:
United States
More flights under this callsign
Pilot: Paul A. (20189)
Aircraft: BOEING 737-600
(B736)
More flights by this aircraft type
Origin: KJAC Jackson Hole
United States
Destination: KBIL Billings Logan Intl
United States
More flights between these airports :: More routes between these airports
Route: +ALPIN2 KICNE JEKUG YLSTN3
File this flight plan on PilotEdge
Remarks:
Altitude:
(Current/Filed)
27,000ft
Speed:
(Current/Filed)
455kts
Departed: 12-Oct-18 05:50 PM
Arrived: 12-Oct-18 06:34 PM
Distance/Time
Traveled:
162nm/0:44
Distance/Time
To Go:
Arrived

Flight Plot

Page will automatically refresh every two minutes.

Flight plan parsing failed; only flown route is shown


Map Options




Map Legend


Flown Route
Filed Route
Departure Airport
Arrival Airport
Navaid (VOR, NDB)
Fix

Horizontal Profiles

Position Reports

Time Latitude Longitude Heading Altitude Ground
Speed
12-Oct-18 17:34 43.602253 -110.737697 109 6459ft 0kts
12-Oct-18 17:35 43.602253 -110.737697 109 6459ft 0kts
12-Oct-18 17:36 43.602253 -110.737697 109 6459ft 0kts
12-Oct-18 17:37 43.602253 -110.737697 109 6459ft 0kts
12-Oct-18 17:38 43.602253 -110.737697 109 6459ft 0kts
12-Oct-18 17:39 43.602253 -110.737697 109 6459ft 0kts
12-Oct-18 17:40 43.602253 -110.737697 109 6459ft 0kts
12-Oct-18 17:41 43.602253 -110.737697 109 6459ft 0kts
12-Oct-18 17:42 43.602253 -110.737697 109 6459ft 0kts
12-Oct-18 17:43 43.602253 -110.737697 109 6459ft 0kts
12-Oct-18 17:44 43.602253 -110.737697 109 6459ft 0kts
12-Oct-18 17:45 43.602252 -110.737695 109 6459ft 0kts
12-Oct-18 17:46 43.604176 -110.737693 18 6459ft 15kts
12-Oct-18 17:47 43.608849 -110.735442 19 6459ft 20kts
12-Oct-18 17:48 43.612703 -110.733565 19 6459ft 11kts
12-Oct-18 17:49 43.614916 -110.732635 339 6459ft 0kts
12-Oct-18 17:50 43.614917 -110.732636 339 6459ft 0kts
12-Oct-18 17:51 43.614959 -110.732668 325 6459ft 3kts
12-Oct-18 17:52 43.604024 -110.739443 201 6544ft 150kts
12-Oct-18 17:53 43.557635 -110.769058 206 10035ft 185kts
12-Oct-18 17:54 43.501584 -110.805252 209 12868ft 260kts
12-Oct-18 17:55 43.425684 -110.854624 209 15470ft 346kts
12-Oct-18 17:56 43.333680 -110.914056 209 19153ft 377kts
12-Oct-18 17:57 43.229399 -110.948414 171 22508ft 421kts
12-Oct-18 17:58 43.146107 -110.840074 105 23011ft 436kts
12-Oct-18 17:59 43.174427 -110.690346 39 23008ft 413kts
12-Oct-18 18:00 43.277777 -110.651428 5 23006ft 394kts
12-Oct-18 18:01 43.377338 -110.581536 27 23453ft 414kts
12-Oct-18 18:02 43.473401 -110.497994 27 26460ft 431kts
12-Oct-18 18:03 43.575805 -110.408542 26 27002ft 434kts
12-Oct-18 18:04 43.677904 -110.319472 26 27001ft 434kts
12-Oct-18 18:05 43.780147 -110.229885 26 26996ft 435kts
12-Oct-18 18:06 43.882276 -110.139880 26 26993ft 435kts
12-Oct-18 18:07 43.984312 -110.049547 26 26990ft 435kts
12-Oct-18 18:08 44.086265 -109.959148 26 26986ft 435kts
12-Oct-18 18:09 44.188193 -109.868083 26 26978ft 435kts
12-Oct-18 18:10 44.289845 -109.776798 26 26962ft 436kts
12-Oct-18 18:11 44.395664 -109.697610 19 26940ft 429kts
12-Oct-18 18:12 44.502596 -109.622920 20 26917ft 431kts
12-Oct-18 18:13 44.609600 -109.547133 20 26759ft 430kts
12-Oct-18 18:14 44.715095 -109.472346 19 25002ft 414kts
12-Oct-18 18:15 44.816766 -109.399715 20 22622ft 404kts
12-Oct-18 18:16 44.915653 -109.329091 20 20225ft 394kts
12-Oct-18 18:17 45.012105 -109.259394 20 17822ft 384kts
12-Oct-18 18:18 45.106338 -109.190987 21 15680ft 371kts
12-Oct-18 18:19 45.192262 -109.128413 20 15159ft 321kts
12-Oct-18 18:20 45.270374 -109.071609 20 14319ft 319kts
12-Oct-18 18:21 45.344477 -109.017295 20 13432ft 288kts
12-Oct-18 18:22 45.414941 -108.965464 20 12453ft 289kts
12-Oct-18 18:23 45.480984 -108.911282 41 11440ft 275kts
12-Oct-18 18:24 45.514318 -108.811582 63 10443ft 276kts
12-Oct-18 18:25 45.542490 -108.709795 64 9446ft 271kts
12-Oct-18 18:26 45.569155 -108.612584 65 8559ft 260kts
12-Oct-18 18:27 45.595620 -108.515708 65 7182ft 262kts
12-Oct-18 18:28 45.620781 -108.423524 64 6487ft 242kts
12-Oct-18 18:29 45.654922 -108.347481 28 5986ft 205kts
12-Oct-18 18:30 45.702000 -108.325876 359 5690ft 167kts
12-Oct-18 18:31 45.744139 -108.322842 323 5022ft 142kts
12-Oct-18 18:32 45.763410 -108.377705 289 5042ft 150kts
12-Oct-18 18:33 45.777706 -108.429045 289 4869ft 135kts
12-Oct-18 18:34 45.790962 -108.476585 288 4176ft 124kts
12-Oct-18 18:35 45.803676 -108.522213 288 3589ft 111kts
12-Oct-18 18:36 45.804756 -108.528936 204 3588ft 0kts
12-Oct-18 18:37 45.804731 -108.531071 270 3588ft 15kts
12-Oct-18 18:38 45.805261 -108.536271 273 3588ft 15kts
12-Oct-18 18:39 45.805769 -108.541798 275 3588ft 17kts
12-Oct-18 18:40 45.804606 -108.547900 269 3588ft 15kts

Navigation Log

Ident Type
Flight plan parsing failed, navigation log unavailable